createdAt,value
2022-12-01T00:01:12.751Z,79.48
2022-12-01T00:03:40.405Z,79.43
2022-12-01T00:06:11.764Z,79.41
2022-12-01T00:08:38.729Z,79.37
2022-12-01T00:11:07.780Z,79.34
2022-12-01T00:13:35.479Z,79.32
2022-12-01T00:16:13.563Z,79.31
2022-12-01T00:18:41.151Z,79.35
2022-12-01T00:21:14.500Z,79.28
2022-12-01T00:23:47.249Z,79.26
2022-12-01T00:26:15.528Z,79.17
2022-12-01T00:28:42.801Z,79.06
2022-12-01T00:31:10.594Z,78.96
2022-12-01T00:33:38.129Z,78.94
2022-12-01T00:36:05.636Z,78.88
2022-12-01T00:38:33.011Z,78.88
2022-12-01T00:40:59.772Z,78.85
2022-12-01T00:43:26.706Z,78.78
2022-12-01T00:45:53.398Z,78.77
2022-12-01T00:48:20.838Z,78.69
2022-12-01T00:50:49.384Z,78.63
2022-12-01T00:53:16.179Z,78.65
2022-12-01T00:55:42.904Z,78.63
2022-12-01T00:58:09.974Z,78.64
2022-12-01T01:00:39.957Z,78.55
2022-12-01T01:03:07.170Z,78.45
2022-12-01T01:05:38.793Z,78.39
2022-12-01T01:08:11.065Z,78.34
2022-12-01T01:10:42.804Z,78.30
2022-12-01T01:13:09.695Z,78.26
2022-12-01T01:15:36.438Z,78.20
2022-12-01T01:18:03.837Z,78.16
2022-12-01T01:20:31.092Z,78.17
2022-12-01T01:22:58.033Z,78.14
2022-12-01T01:25:25.656Z,78.16
2022-12-01T01:27:52.341Z,78.16
2022-12-01T01:30:19.883Z,78.18
2022-12-01T01:32:47.311Z,78.20
2022-12-01T01:35:13.956Z,78.20
2022-12-01T01:37:40.703Z,78.21
2022-12-01T01:40:08.340Z,78.20
2022-12-01T01:42:35.006Z,78.19
2022-12-01T01:45:01.821Z,78.21
2022-12-01T01:47:38.494Z,78.21
2022-12-01T01:50:10.459Z,78.24
2022-12-01T01:52:44.572Z,78.21
2022-12-01T01:55:12.739Z,78.22
2022-12-01T01:57:40.494Z,78.26
2022-12-01T02:00:15.969Z,78.30
2022-12-01T02:02:45.789Z,78.33
2022-12-01T02:05:26.002Z,78.37
2022-12-01T02:07:55.243Z,78.40
2022-12-01T02:10:30.414Z,78.41
2022-12-01T02:13:21.980Z,78.42
2022-12-01T02:16:02.663Z,78.43
2022-12-01T02:18:55.632Z,78.39
2022-12-01T02:21:54.494Z,78.39
2022-12-01T02:24:49.725Z,78.45
2022-12-01T02:27:30.781Z,78.48
2022-12-01T02:29:57.341Z,78.54
2022-12-01T02:32:33.418Z,78.57
2022-12-01T02:35:27.032Z,78.59
2022-12-01T02:38:09.063Z,78.67
2022-12-01T02:40:56.197Z,78.76
2022-12-01T02:43:38.078Z,78.82
2022-12-01T02:46:30.023Z,78.90
2022-12-01T02:49:01.991Z,78.92
2022-12-01T02:51:34.478Z,78.97
2022-12-01T02:54:03.474Z,79.00
2022-12-01T02:56:30.136Z,79.04
2022-12-01T02:58:57.026Z,79.07
2022-12-01T03:02:04.191Z,79.10
2022-12-01T03:04:46.136Z,79.13
2022-12-01T03:07:22.297Z,79.16
2022-12-01T03:10:04.698Z,79.21
2022-12-01T03:12:56.466Z,79.24
2022-12-01T03:15:34.061Z,79.28
2022-12-01T03:18:25.564Z,79.31
2022-12-01T03:20:57.794Z,79.37
2022-12-01T03:23:28.768Z,79.44
2022-12-01T03:25:57.968Z,79.48
2022-12-01T03:28:32.443Z,79.54
2022-12-01T03:31:07.127Z,79.60
2022-12-01T03:33:40.914Z,79.65
2022-12-01T03:36:10.580Z,79.71
2022-12-01T03:38:39.385Z,79.75
2022-12-01T03:41:14.762Z,79.79
2022-12-01T03:43:48.592Z,79.81
2022-12-01T03:46:29.468Z,79.88
2022-12-01T03:48:56.629Z,79.92
2022-12-01T03:51:33.707Z,79.97
2022-12-01T03:54:14.404Z,80.01
2022-12-01T03:56:49.907Z,80.06
2022-12-01T03:59:20.975Z,80.15
2022-12-01T04:01:48.039Z,80.24
2022-12-01T04:04:15.159Z,80.25
2022-12-01T04:06:45.030Z,80.26
2022-12-01T04:09:11.883Z,80.29
2022-12-01T04:11:57.285Z,80.31
2022-12-01T04:14:23.966Z,80.35
2022-12-01T04:16:50.864Z,80.41
2022-12-01T04:19:17.648Z,80.43
2022-12-01T04:21:44.350Z,80.49
2022-12-01T04:24:12.511Z,80.52
2022-12-01T04:26:39.425Z,80.54
2022-12-01T04:29:09.192Z,80.62
2022-12-01T04:31:36.261Z,80.69
2022-12-01T04:34:03.062Z,80.76
2022-12-01T04:36:32.035Z,80.80
2022-12-01T04:38:59.505Z,80.87
2022-12-01T04:41:26.221Z,80.90
2022-12-01T04:43:54.678Z,80.93
2022-12-01T04:46:22.394Z,80.96
2022-12-01T04:48:49.390Z,80.99
2022-12-01T04:51:16.091Z,81.00
2022-12-01T04:53:43.247Z,81.05
2022-12-01T04:56:10.461Z,81.06
2022-12-01T04:58:37.913Z,81.08
2022-12-01T05:01:08.628Z,81.09
2022-12-01T05:03:40.061Z,81.12
2022-12-01T05:06:12.749Z,81.15
2022-12-01T05:08:39.864Z,81.17
2022-12-01T05:11:11.867Z,81.20
2022-12-01T05:13:44.597Z,81.21
2022-12-01T05:16:18.671Z,81.23
2022-12-01T05:18:50.861Z,81.26
2022-12-01T05:21:18.520Z,81.28
2022-12-01T05:23:45.673Z,81.29
2022-12-01T05:26:12.375Z,81.31
2022-12-01T05:28:40.904Z,81.37
2022-12-01T05:31:07.904Z,81.42
2022-12-01T05:33:34.615Z,81.44
2022-12-01T05:36:01.285Z,81.49
2022-12-01T05:38:28.194Z,81.57
2022-12-01T05:40:56.012Z,81.59
2022-12-01T05:43:28.728Z,81.65
2022-12-01T05:45:57.423Z,81.70
2022-12-01T05:48:24.234Z,81.74
2022-12-01T05:50:51.407Z,81.79
2022-12-01T05:53:19.108Z,81.84
2022-12-01T05:55:46.112Z,81.87
2022-12-01T05:58:13.091Z,81.91
2022-12-01T06:00:45.790Z,81.94
2022-12-01T06:03:13.718Z,82.00
2022-12-01T06:05:41.275Z,82.02
2022-12-01T06:08:08.383Z,82.06
2022-12-01T06:10:35.550Z,82.09
2022-12-01T06:13:02.505Z,82.11
2022-12-01T06:15:29.187Z,82.13
2022-12-01T06:17:59.139Z,82.17
2022-12-01T06:20:26.560Z,82.17
2022-12-01T06:22:53.364Z,82.17
2022-12-01T06:25:20.647Z,82.21
2022-12-01T06:27:47.353Z,82.25
2022-12-01T06:30:14.158Z,82.21
2022-12-01T06:32:41.040Z,82.25
2022-12-01T06:35:08.153Z,82.29
2022-12-01T06:37:34.887Z,82.29
2022-12-01T06:40:02.010Z,82.31
2022-12-01T06:42:32.474Z,82.28
2022-12-01T06:44:59.191Z,82.28
2022-12-01T06:47:27.230Z,82.26
2022-12-01T06:49:53.888Z,82.24
2022-12-01T06:52:20.497Z,82.24
2022-12-01T06:54:47.391Z,82.16
2022-12-01T06:57:14.561Z,82.10
2022-12-01T06:59:41.588Z,82.06
2022-12-01T07:02:12.565Z,81.98
2022-12-01T07:04:39.380Z,81.95
2022-12-01T07:07:06.463Z,81.92
2022-12-01T07:09:34.208Z,81.92
2022-12-01T07:12:00.941Z,81.87
2022-12-01T07:14:27.651Z,81.87
2022-12-01T07:16:55.186Z,81.83
2022-12-01T07:19:22.208Z,81.79
2022-12-01T07:21:49.320Z,81.75
2022-12-01T07:24:16.603Z,81.76
2022-12-01T07:26:43.698Z,81.74
2022-12-01T07:29:11.345Z,81.74
2022-12-01T07:31:38.766Z,81.73
2022-12-01T07:34:06.266Z,81.72
2022-12-01T07:36:32.918Z,81.70
2022-12-01T07:39:00.052Z,81.64
2022-12-01T07:41:26.654Z,81.61
2022-12-01T07:43:55.180Z,81.63
2022-12-01T07:46:25.219Z,81.65
2022-12-01T07:48:53.393Z,81.59
2022-12-01T07:51:21.248Z,81.56
2022-12-01T07:53:49.979Z,81.56
2022-12-01T07:56:18.184Z,81.55
2022-12-01T07:58:45.255Z,81.56
2022-12-01T08:01:15.855Z,81.53
2022-12-01T08:03:43.490Z,81.50
2022-12-01T08:06:10.546Z,81.44
2022-12-01T08:08:41.340Z,81.42
2022-12-01T08:11:25.066Z,81.42
2022-12-01T08:13:52.737Z,81.39
2022-12-01T08:16:22.829Z,81.31
2022-12-01T08:18:50.027Z,81.23
2022-12-01T08:21:19.987Z,81.22
2022-12-01T08:23:47.163Z,81.11
2022-12-01T08:26:19.154Z,81.00
2022-12-01T08:28:46.203Z,80.91
2022-12-01T08:31:17.654Z,81.11
2022-12-01T08:33:45.556Z,80.82
2022-12-01T08:36:12.342Z,80.77
2022-12-01T08:38:39.214Z,80.78
2022-12-01T08:41:09.050Z,80.72
2022-12-01T08:46:29.114Z,80.48
2022-12-01T08:48:57.389Z,80.48
2022-12-01T08:51:25.035Z,80.49
2022-12-01T08:53:52.203Z,80.49
2022-12-01T10:25:05.992Z,79.16
2022-12-01T10:28:10.051Z,79.16
2022-12-01T10:30:47.255Z,79.34
2022-12-01T10:33:33.688Z,78.79
2022-12-01T10:36:00.382Z,78.50
2022-12-01T10:38:34.790Z,77.98
2022-12-01T10:41:03.757Z,77.81
2022-12-01T10:43:57.683Z,77.58
2022-12-01T10:46:32.232Z,77.70
2022-12-01T10:49:06.824Z,77.15
2022-12-01T10:51:48.070Z,76.85
2022-12-01T10:54:15.009Z,76.84
2022-12-01T10:56:45.694Z,76.54
2022-12-01T10:59:44.149Z,76.48
2022-12-01T11:02:18.146Z,76.65
2022-12-01T11:04:53.612Z,76.37
2022-12-01T11:07:32.106Z,76.19
2022-12-01T11:10:13.428Z,75.95
2022-12-01T11:12:41.180Z,76.00
2022-12-01T11:15:17.918Z,75.73
2022-12-01T11:17:45.156Z,75.55
2022-12-01T11:20:38.116Z,75.43
2022-12-01T11:23:21.497Z,75.51
2022-12-01T11:26:02.194Z,75.34
2022-12-01T11:28:30.803Z,75.20
2022-12-01T11:31:04.250Z,75.00
2022-12-01T11:33:39.678Z,75.03
2022-12-01T11:36:11.747Z,74.87
2022-12-01T11:38:41.871Z,74.75
2022-12-01T11:41:26.793Z,74.74
2022-12-01T11:44:01.533Z,74.85
2022-12-01T11:46:33.693Z,74.58
2022-12-01T11:49:01.515Z,74.58
2022-12-01T11:51:39.157Z,74.50
2022-12-01T11:54:23.547Z,74.42
2022-12-01T11:57:17.420Z,74.45
2022-12-01T11:59:39.240Z,74.29
2022-12-01T12:02:39.995Z,74.24
2022-12-01T12:05:35.347Z,74.49
2022-12-01T12:08:07.671Z,74.41
2022-12-01T12:10:37.547Z,74.21
2022-12-01T12:13:16.290Z,74.20
2022-12-01T12:15:51.226Z,74.29
2022-12-01T12:18:32.536Z,74.22
2022-12-01T12:21:17.771Z,74.24
2022-12-01T12:24:23.386Z,74.26
2022-12-01T12:27:27.535Z,74.22
2022-12-01T12:30:09.427Z,74.14
2022-12-01T12:32:36.458Z,74.07
2022-12-01T12:35:03.654Z,74.39
2022-12-01T12:37:53.921Z,73.99
2022-12-01T12:40:41.670Z,74.06
2022-12-01T12:43:43.922Z,74.08
2022-12-01T12:46:27.649Z,74.05
2022-12-01T12:49:26.435Z,74.06
2022-12-01T12:52:14.963Z,74.11
2022-12-01T12:54:58.975Z,74.03
2022-12-01T12:57:29.694Z,74.01
2022-12-01T13:00:04.673Z,73.89
2022-12-01T13:02:41.014Z,73.99
2022-12-01T13:05:23.829Z,74.05
2022-12-01T13:07:59.800Z,74.16
2022-12-01T13:10:34.440Z,74.18
2022-12-01T13:13:30.791Z,74.27
2022-12-01T13:15:59.513Z,74.41
2022-12-01T13:18:39.432Z,74.40
2022-12-01T13:21:07.190Z,74.47
2022-12-01T13:23:37.912Z,74.50
2022-12-01T13:26:08.794Z,74.55
2022-12-01T13:28:50.289Z,74.60
2022-12-01T13:31:19.283Z,74.64
2022-12-01T13:33:58.110Z,74.63
2022-12-01T13:39:29.629Z,74.67
2022-12-01T13:42:21.666Z,74.63
2022-12-01T13:44:58.313Z,74.64
2022-12-01T13:47:37.067Z,74.59
2022-12-01T13:50:46.062Z,74.58
2022-12-01T13:53:25.230Z,74.68
2022-12-01T13:56:17.249Z,74.62
2022-12-01T13:58:46.078Z,74.70
2022-12-01T14:01:25.723Z,74.67
2022-12-01T14:04:03.278Z,74.69
2022-12-01T14:06:36.136Z,74.71
2022-12-01T14:09:14.812Z,74.76
2022-12-01T14:11:54.272Z,74.78
2022-12-01T14:14:26.322Z,74.73
2022-12-01T14:16:55.575Z,74.74
2022-12-01T14:19:47.950Z,74.73
2022-12-01T14:22:44.598Z,74.83
2022-12-01T14:25:20.759Z,74.84
2022-12-01T14:27:52.592Z,74.82
2022-12-01T14:30:38.522Z,74.81
2022-12-01T14:33:39.752Z,74.96
2022-12-01T14:36:09.151Z,74.86
2022-12-01T14:38:36.802Z,74.79
2022-12-01T14:41:09.963Z,74.73
2022-12-01T14:44:00.150Z,74.70
2022-12-01T14:46:30.943Z,74.72
2022-12-01T14:48:59.021Z,74.79
2022-12-01T14:51:32.688Z,74.82
2022-12-01T14:54:04.206Z,74.85
2022-12-01T14:56:33.275Z,74.87
2022-12-01T14:59:15.174Z,74.90
2022-12-01T15:01:42.014Z,74.97
2022-12-01T15:04:09.116Z,75.02
2022-12-01T15:06:37.643Z,75.09
2022-12-01T15:12:04.757Z,75.22
2022-12-01T15:14:37.097Z,75.27
2022-12-01T15:17:06.226Z,75.34
2022-12-01T15:19:37.481Z,75.38
2022-12-01T15:22:17.834Z,75.43
2022-12-01T15:24:45.624Z,75.47
2022-12-01T15:27:43.160Z,75.52
2022-12-01T15:30:15.420Z,75.56
2022-12-01T15:32:45.858Z,75.61
2022-12-01T15:35:21.574Z,75.65
2022-12-01T15:37:50.701Z,75.67
2022-12-01T15:43:16.702Z,75.75
2022-12-01T15:45:55.079Z,75.79
2022-12-01T15:48:34.352Z,75.83
2022-12-01T15:51:27.007Z,75.89
2022-12-01T15:53:58.244Z,75.94
2022-12-01T15:56:31.707Z,75.96
2022-12-01T15:59:51.293Z,75.99
2022-12-01T16:02:30.619Z,76.04
2022-12-01T16:05:14.647Z,76.08
2022-12-01T16:08:12.151Z,76.10
2022-12-01T16:10:31.864Z,76.13
2022-12-01T16:13:36.221Z,76.14
2022-12-01T16:16:30.224Z,76.17
2022-12-01T16:19:02.272Z,76.17
2022-12-01T16:21:33.852Z,76.13
2022-12-01T16:24:05.791Z,76.10
2022-12-01T16:26:33.782Z,76.04
2022-12-01T16:29:00.592Z,75.99
2022-12-01T16:31:27.486Z,75.95
2022-12-01T16:34:13.896Z,75.94
2022-12-01T16:36:46.107Z,75.98
2022-12-01T16:39:14.334Z,75.99
2022-12-01T16:41:44.817Z,75.96
2022-12-01T16:44:28.118Z,75.98
2022-12-01T16:46:56.185Z,76.01
2022-12-01T16:49:23.057Z,76.06
2022-12-01T16:51:56.077Z,76.07
2022-12-01T16:54:23.837Z,76.13
2022-12-01T16:56:51.072Z,76.17
2022-12-01T16:59:17.792Z,76.23
2022-12-01T17:01:44.788Z,76.26
2022-12-01T17:04:11.531Z,76.27
2022-12-01T17:06:38.469Z,76.28
2022-12-01T17:09:06.002Z,76.29
2022-12-01T17:11:33.004Z,76.32
2022-12-01T17:13:59.879Z,76.33
2022-12-01T17:16:27.040Z,76.33
2022-12-01T17:18:53.781Z,76.36
2022-12-01T17:21:20.522Z,76.37
2022-12-01T17:23:47.863Z,76.39
2022-12-01T17:26:16.556Z,76.41
2022-12-01T17:28:43.519Z,76.41
2022-12-01T17:31:12.146Z,76.44
2022-12-01T17:33:39.631Z,76.47
2022-12-01T17:36:14.603Z,76.53
2022-12-01T17:38:44.785Z,76.55
2022-12-01T17:41:14.244Z,76.57
2022-12-01T17:43:42.248Z,76.56
2022-12-01T17:46:11.628Z,76.57
2022-12-01T17:48:40.664Z,76.60
2022-12-01T17:51:09.064Z,76.59
2022-12-01T17:53:37.032Z,76.57
2022-12-01T17:56:08.488Z,76.58
2022-12-01T17:58:36.418Z,76.61
2022-12-01T18:01:03.967Z,76.63
2022-12-01T18:03:31.317Z,76.67
2022-12-01T18:05:59.499Z,76.67
2022-12-01T18:08:28.146Z,76.66
2022-12-01T18:10:55.242Z,76.66
2022-12-01T18:13:22.960Z,76.68
2022-12-01T18:15:51.134Z,76.67
2022-12-01T18:18:18.460Z,76.69
2022-12-01T18:20:45.704Z,76.71
2022-12-01T18:23:13.343Z,76.72
2022-12-01T18:25:40.488Z,76.73
2022-12-01T18:28:07.974Z,76.73
2022-12-01T18:30:35.011Z,76.74
2022-12-01T18:33:02.174Z,76.75
2022-12-01T18:35:31.884Z,76.72
2022-12-01T18:37:58.931Z,76.73
2022-12-01T18:40:27.188Z,76.74
2022-12-01T18:42:53.918Z,76.75
2022-12-01T18:45:21.446Z,76.76
2022-12-01T18:47:50.091Z,76.79
2022-12-01T18:50:17.129Z,76.79
2022-12-01T18:52:44.163Z,76.79
2022-12-01T18:55:11.218Z,76.81
2022-12-01T18:57:37.869Z,76.81
2022-12-01T19:00:06.128Z,76.81
2022-12-01T19:02:33.112Z,76.84
2022-12-01T19:04:59.816Z,76.86
2022-12-01T19:07:29.955Z,76.87
2022-12-01T19:09:57.841Z,76.87
2022-12-01T19:12:24.513Z,76.87
2022-12-01T19:14:53.074Z,76.90
2022-12-01T19:17:21.470Z,76.90
2022-12-01T19:19:48.150Z,76.92
2022-12-01T19:22:17.509Z,76.94
2022-12-01T19:24:49.898Z,76.95
2022-12-01T19:27:20.054Z,76.97
2022-12-01T19:29:49.591Z,76.98
2022-12-01T19:32:16.522Z,76.98
2022-12-01T19:34:44.110Z,76.99
2022-12-01T19:37:11.410Z,77.01
2022-12-01T19:39:38.204Z,77.01
2022-12-01T19:42:05.225Z,77.01
2022-12-01T19:44:32.146Z,77.03
2022-12-01T19:46:58.844Z,77.02
2022-12-01T19:49:25.576Z,77.01
2022-12-01T19:51:52.502Z,77.01
2022-12-01T19:54:20.244Z,77.01
2022-12-01T19:56:47.097Z,77.03
2022-12-01T19:59:14.941Z,77.01
2022-12-01T20:01:41.681Z,77.00
2022-12-01T20:04:08.852Z,76.97
2022-12-01T20:06:37.828Z,76.96
2022-12-01T20:09:06.342Z,76.97
2022-12-01T20:11:35.295Z,77.03
2022-12-01T20:14:04.097Z,77.11
2022-12-01T20:16:30.878Z,77.01
2022-12-01T20:19:01.629Z,76.93
2022-12-01T20:21:31.718Z,76.91
2022-12-01T20:24:06.839Z,76.92
2022-12-01T20:26:36.812Z,76.89
2022-12-01T20:29:09.839Z,76.87
2022-12-01T20:31:37.630Z,76.86
2022-12-01T20:34:09.042Z,76.80
2022-12-01T20:36:36.813Z,76.80
2022-12-01T20:39:04.915Z,76.78
2022-12-01T20:41:32.395Z,76.79
2022-12-01T20:44:02.432Z,76.77
2022-12-01T20:46:34.453Z,76.75
2022-12-01T20:49:01.246Z,76.70
2022-12-01T20:51:28.373Z,76.68
2022-12-01T20:54:26.062Z,76.66
2022-12-01T20:56:42.029Z,76.65
2022-12-01T20:59:09.114Z,76.64
2022-12-01T21:01:36.147Z,76.61
2022-12-01T21:04:03.226Z,76.58
2022-12-01T21:06:30.231Z,76.54
2022-12-01T21:08:56.874Z,76.47
2022-12-01T21:12:03.512Z,76.42
2022-12-01T21:14:37.710Z,76.46
2022-12-01T21:17:18.335Z,76.28
2022-12-01T21:19:57.140Z,76.21
2022-12-01T21:22:24.924Z,76.21
2022-12-01T21:24:56.322Z,76.14
2022-12-01T21:27:22.942Z,76.12
2022-12-01T21:29:50.649Z,76.13
2022-12-01T21:32:22.574Z,76.13
2022-12-01T21:34:50.052Z,76.05
2022-12-01T21:37:22.136Z,76.04
2022-12-01T21:39:51.109Z,75.98
2022-12-01T21:42:25.133Z,75.98
2022-12-01T21:44:52.504Z,75.98
2022-12-01T21:47:21.655Z,75.99
2022-12-01T21:49:56.167Z,75.98
2022-12-01T21:52:30.030Z,75.98
2022-12-01T21:55:09.122Z,76.00
2022-12-01T21:57:48.054Z,75.98
2022-12-01T22:00:31.528Z,75.99
2022-12-01T22:03:29.160Z,75.93
2022-12-01T22:06:28.397Z,76.00
2022-12-01T22:08:57.711Z,75.91
2022-12-01T22:11:27.017Z,75.92
2022-12-01T22:14:09.338Z,75.86
2022-12-01T22:16:40.869Z,75.91
2022-12-01T22:19:32.190Z,75.83
2022-12-01T22:22:01.808Z,75.86
2022-12-01T22:24:40.997Z,75.72
2022-12-01T22:27:16.435Z,75.73
2022-12-01T22:29:46.044Z,75.65
2022-12-01T22:32:13.035Z,75.61
2022-12-01T22:34:49.594Z,75.60
2022-12-01T22:37:22.287Z,75.64
2022-12-01T22:39:51.653Z,75.60
2022-12-01T22:42:25.747Z,75.80
2022-12-01T22:44:52.775Z,75.58
2022-12-01T22:47:19.891Z,75.51
2022-12-01T22:49:46.623Z,75.44
2022-12-01T22:52:27.096Z,75.40
2022-12-01T22:54:55.030Z,75.43
2022-12-01T22:57:24.824Z,75.35
2022-12-01T22:59:52.645Z,75.29
2022-12-01T23:02:27.079Z,75.22
2022-12-01T23:04:59.736Z,75.17
2022-12-01T23:07:31.306Z,75.13
2022-12-01T23:10:19.323Z,75.11
2022-12-01T23:12:48.644Z,75.17
2022-12-01T23:15:15.209Z,75.01
2022-12-01T23:17:41.937Z,74.99
2022-12-01T23:20:30.991Z,74.96
2022-12-01T23:23:00.624Z,75.05
2022-12-01T23:25:28.364Z,74.87
2022-12-01T23:27:59.201Z,74.85
2022-12-01T23:30:26.311Z,74.82
2022-12-01T23:33:04.161Z,74.79
2022-12-01T23:35:34.796Z,74.79
2022-12-01T23:38:02.008Z,74.72
2022-12-01T23:40:34.342Z,74.65
2022-12-01T23:43:17.734Z,74.61
2022-12-01T23:45:45.867Z,74.64
2022-12-01T23:48:19.376Z,74.55
2022-12-01T23:50:49.535Z,74.55
2022-12-01T23:53:25.665Z,74.54
2022-12-01T23:55:53.279Z,74.58
2022-12-01T23:58:20.284Z,74.52
